KCEU/CEU METAR and TAF weather

Enter ICAO airport designator
Station Type Date Time Source
KCEU METAR 2019/08/24 20:54 UTC NOAA

KCEU 242054Z AUTO 07009KT 10SM OVC019 23/18 A3008 RMK AO2 SLP177 T02280183 55005


Station Type Date Time Source
KCEU Decoded METAR 2019/08/24 20:54 UTC NOAA

Station name not available
Aug 24, 2019 - 04:54 PM EDT / 2019.08.24 2054 UTC
Wind: from the ENE (070 degrees) at 10 MPH (9 KT):0
Visibility: 10 mile(s):0
Sky conditions: overcast
Temperature: 73.0 F (22.8 C)
Dew Point: 64.9 F (18.3 C)
Relative Humidity: 75%
Pressure (altimeter): 30.08 in. Hg (1018 hPa)
Pressure tendency: 0.01 inches (0.5 hPa) lower than three hours ago
ob: KCEU 242054Z AUTO 07009KT 10SM OVC019 23/18 A3008 RMK AO2 SLP177 T02280183 55005
cycle: 21

Station Type Date Time Source
KCEU TAF UTC NOAA

Error!

Example: see airport list